AFR4776 GLRB-FKKD
Flight info
| Callsign | AFR4776 |
|---|---|
| Flight time | 2h 54m |
| Altitude | 35000 |
| Route | ARKAK DCT RITAM UB600 AD UR979 SESIG UY57 LIREX UP685 ARDEX DCT MBO ERPIS1L |
| Aircraft | A320/M-SDE3FGHIRWY/LB1 |
Departure
| Time | 2026-05-04 16:29 |
|---|---|
| Airport | Roberts International Airport (GLRB) |
Arrival
| Time | 2026-05-04 19:23 |
|---|---|
| Airport | Douala International Airport (FKKD) |
| Time | Latitude | Longitude | Altitude | Speed | Heading |
|---|---|---|---|---|---|
| 2026-05-04 16:21 | 6.24248 | -10.35441 | 32 ft | 0 kts | 333° |
| 2026-05-04 16:26 | 6.24257 | -10.35436 | 32 ft | 3 kts | 30° |
| 2026-05-04 16:27 | 6.24472 | -10.35373 | 32 ft | 30 kts | 355° |
| 2026-05-04 16:28 | 6.24604 | -10.35385 | 31 ft | 0 kts | 350° |
| 2026-05-04 16:28 | 6.24520 | -10.35562 | 30 ft | 50 kts | 211° |
| 2026-05-04 16:29 | 6.20773 | -10.37826 | 774 ft | 206 kts | 212° |
| 2026-05-04 16:30 | 6.16980 | -10.40093 | 2645 ft | 219 kts | 209° |
| 2026-05-04 16:31 | 6.14100 | -10.40431 | 3649 ft | 226 kts | 143° |
| 2026-05-04 16:31 | 6.11049 | -10.36212 | 5098 ft | 265 kts | 118° |
| 2026-05-04 16:32 | 6.08158 | -10.31432 | 7379 ft | 269 kts | 120° |
| 2026-05-04 16:33 | 6.06139 | -10.28257 | 8871 ft | 270 kts | 120° |
| 2026-05-04 16:33 | 6.04096 | -10.25091 | 10266 ft | 273 kts | 119° |
| 2026-05-04 16:34 | 6.02831 | -10.21375 | 10780 ft | 302 kts | 92° |
| 2026-05-04 16:34 | 6.02798 | -10.19197 | 10903 ft | 322 kts | 90° |
| 2026-05-04 16:35 | 6.02707 | -10.11974 | 11709 ft | 357 kts | 90° |
| 2026-05-04 16:35 | 6.02586 | -10.04427 | 13267 ft | 366 kts | 90° |
| 2026-05-04 16:36 | 6.02545 | -10.01863 | 13769 ft | 368 kts | 90° |
| 2026-05-04 16:36 | 6.02463 | -9.96682 | 14606 ft | 374 kts | 90° |
| 2026-05-04 16:37 | 6.02381 | -9.91405 | 15406 ft | 380 kts | 90° |
| 2026-05-04 16:37 | 6.02340 | -9.88737 | 15794 ft | 383 kts | 90° |
| 2026-05-04 16:37 | 6.02252 | -9.83337 | 16568 ft | 389 kts | 90° |
| 2026-05-04 16:38 | 6.02159 | -9.77850 | 17311 ft | 395 kts | 91° |
| 2026-05-04 16:39 | 6.02028 | -9.69507 | 18363 ft | 404 kts | 91° |
| 2026-05-04 16:39 | 6.01943 | -9.63808 | 18946 ft | 411 kts | 91° |
| 2026-05-04 16:40 | 6.01849 | -9.58029 | 19511 ft | 417 kts | 91° |
| 2026-05-04 16:40 | 6.01749 | -9.52160 | 20073 ft | 423 kts | 91° |
| 2026-05-04 16:41 | 6.01649 | -9.46215 | 20622 ft | 429 kts | 91° |
| 2026-05-04 16:41 | 6.01500 | -9.37142 | 21411 ft | 437 kts | 91° |
| 2026-05-04 16:42 | 6.01341 | -9.27937 | 22141 ft | 445 kts | 91° |
| 2026-05-04 16:43 | 6.01238 | -9.21687 | 22623 ft | 450 kts | 91° |
| 2026-05-04 16:43 | 6.01133 | -9.15367 | 23103 ft | 454 kts | 91° |
| 2026-05-04 16:43 | 6.01079 | -9.12194 | 23380 ft | 455 kts | 92° |
| 2026-05-04 16:44 | 6.00845 | -8.99372 | 24131 ft | 462 kts | 91° |
| 2026-05-04 16:45 | 6.00725 | -8.92895 | 24517 ft | 464 kts | 92° |
| 2026-05-04 16:46 | 6.00554 | -8.83128 | 25060 ft | 468 kts | 91° |
| 2026-05-04 16:46 | 6.00450 | -8.76611 | 25412 ft | 470 kts | 91° |
| 2026-05-04 16:47 | 6.00283 | -8.70011 | 25752 ft | 473 kts | 96° |
| 2026-05-04 16:47 | 5.99327 | -8.63453 | 26077 ft | 476 kts | 99° |
| 2026-05-04 16:48 | 5.97830 | -8.53583 | 26704 ft | 477 kts | 98° |
| 2026-05-04 16:48 | 5.97335 | -8.50292 | 26955 ft | 476 kts | 98° |
| 2026-05-04 16:49 | 5.96341 | -8.43710 | 27417 ft | 476 kts | 98° |
| 2026-05-04 16:49 | 5.95343 | -8.37177 | 27908 ft | 476 kts | 98° |
| 2026-05-04 16:50 | 5.94340 | -8.30605 | 28416 ft | 475 kts | 98° |
| 2026-05-04 16:50 | 5.93348 | -8.24045 | 28902 ft | 475 kts | 98° |
| 2026-05-04 16:51 | 5.92356 | -8.17480 | 29373 ft | 475 kts | 97° |
| 2026-05-04 16:51 | 5.91859 | -8.14204 | 29630 ft | 474 kts | 98° |
| 2026-05-04 16:51 | 5.90867 | -8.07648 | 30083 ft | 474 kts | 97° |
| 2026-05-04 16:52 | 5.89866 | -8.01135 | 30508 ft | 474 kts | 97° |
| 2026-05-04 16:52 | 5.89362 | -7.97866 | 30720 ft | 474 kts | 97° |
| 2026-05-04 16:53 | 5.88374 | -7.91323 | 31166 ft | 473 kts | 97° |
| 2026-05-04 16:53 | 5.86884 | -7.81527 | 31850 ft | 472 kts | 97° |
| 2026-05-04 16:54 | 5.86384 | -7.78270 | 32084 ft | 472 kts | 97° |
| 2026-05-04 16:55 | 5.84397 | -7.65267 | 33040 ft | 470 kts | 97° |
| 2026-05-04 16:55 | 5.83403 | -7.58779 | 33505 ft | 470 kts | 97° |
| 2026-05-04 16:56 | 5.82411 | -7.52328 | 33917 ft | 471 kts | 97° |
| 2026-05-04 16:56 | 5.80915 | -7.42604 | 34559 ft | 469 kts | 97° |
| 2026-05-04 16:57 | 5.80428 | -7.39366 | 34768 ft | 469 kts | 97° |
| 2026-05-04 16:57 | 5.79475 | -7.32872 | 34887 ft | 472 kts | 97° |
| 2026-05-04 16:58 | 5.77713 | -7.20924 | 34885 ft | 472 kts | 97° |
| 2026-05-04 17:00 | 5.74777 | -7.01303 | 34889 ft | 474 kts | 97° |
| 2026-05-04 17:01 | 5.72337 | -6.84933 | 34905 ft | 474 kts | 97° |
| 2026-05-04 17:02 | 5.70369 | -6.71844 | 34901 ft | 474 kts | 97° |
| 2026-05-04 17:03 | 5.68903 | -6.62033 | 34906 ft | 475 kts | 97° |
| 2026-05-04 17:03 | 5.67416 | -6.52090 | 34901 ft | 489 kts | 97° |
| 2026-05-04 17:04 | 5.65388 | -6.38751 | 34901 ft | 472 kts | 98° |
| 2026-05-04 17:05 | 5.63450 | -6.25782 | 34899 ft | 470 kts | 97° |
| 2026-05-04 17:06 | 5.61987 | -6.16038 | 34902 ft | 471 kts | 97° |
| 2026-05-04 17:07 | 5.60677 | -6.07380 | 34910 ft | 471 kts | 97° |
| 2026-05-04 17:07 | 5.59527 | -5.99770 | 34911 ft | 471 kts | 97° |
| 2026-05-04 17:08 | 5.58048 | -5.90003 | 34913 ft | 472 kts | 98° |
| 2026-05-04 17:09 | 5.57067 | -5.83494 | 34912 ft | 471 kts | 97° |
| 2026-05-04 17:09 | 5.56086 | -5.76981 | 34913 ft | 471 kts | 98° |
| 2026-05-04 17:10 | 5.53661 | -5.60740 | 34904 ft | 472 kts | 97° |
| 2026-05-04 17:11 | 5.52692 | -5.54225 | 34903 ft | 472 kts | 97° |
| 2026-05-04 17:12 | 5.51230 | -5.44452 | 34902 ft | 472 kts | 96° |
| 2026-05-04 17:13 | 5.48808 | -5.28139 | 34893 ft | 472 kts | 97° |
| 2026-05-04 17:14 | 5.46862 | -5.15096 | 34886 ft | 473 kts | 97° |
| 2026-05-04 17:15 | 5.45393 | -5.05309 | 34890 ft | 473 kts | 97° |
| 2026-05-04 17:16 | 5.43451 | -4.92289 | 34880 ft | 473 kts | 97° |
| 2026-05-04 17:17 | 5.41489 | -4.79211 | 34879 ft | 474 kts | 97° |
| 2026-05-04 17:18 | 5.39513 | -4.66113 | 34882 ft | 475 kts | 97° |
| 2026-05-04 17:19 | 5.37080 | -4.53081 | 34878 ft | 475 kts | 97° |
| 2026-05-04 17:20 | 5.35254 | -4.39939 | 34880 ft | 476 kts | 97° |
| 2026-05-04 17:20 | 5.33653 | -4.30096 | 34883 ft | 477 kts | 98° |
| 2026-05-04 17:21 | 5.31495 | -4.16966 | 34885 ft | 477 kts | 98° |
| 2026-05-04 17:22 | 5.30437 | -4.10404 | 34884 ft | 476 kts | 98° |
| 2026-05-04 17:23 | 5.28318 | -3.97304 | 34884 ft | 475 kts | 98° |
| 2026-05-04 17:24 | 5.26721 | -3.87538 | 34878 ft | 475 kts | 98° |
| 2026-05-04 17:25 | 5.24605 | -3.74458 | 34892 ft | 475 kts | 98° |
| 2026-05-04 17:26 | 5.22472 | -3.61379 | 34895 ft | 475 kts | 98° |
| 2026-05-04 17:27 | 5.19804 | -3.45027 | 34891 ft | 475 kts | 98° |
| 2026-05-04 17:28 | 5.17668 | -3.31941 | 34886 ft | 475 kts | 98° |
| 2026-05-04 17:29 | 5.14461 | -3.12339 | 34893 ft | 476 kts | 98° |
| 2026-05-04 17:31 | 5.11776 | -2.95983 | 34880 ft | 476 kts | 98° |
| 2026-05-04 17:32 | 5.09092 | -2.79599 | 34892 ft | 476 kts | 98° |
| 2026-05-04 17:33 | 5.06937 | -2.66486 | 34891 ft | 476 kts | 98° |
| 2026-05-04 17:34 | 5.04773 | -2.53395 | 34888 ft | 477 kts | 98° |
| 2026-05-04 17:35 | 5.02068 | -2.36979 | 34890 ft | 477 kts | 98° |
| 2026-05-04 17:36 | 5.00993 | -2.30405 | 34887 ft | 478 kts | 98° |
| 2026-05-04 17:36 | 4.99910 | -2.23830 | 34899 ft | 478 kts | 98° |
| 2026-05-04 17:37 | 4.98821 | -2.17253 | 34893 ft | 478 kts | 98° |
| 2026-05-04 17:37 | 4.97729 | -2.10677 | 34900 ft | 478 kts | 98° |
| 2026-05-04 17:38 | 4.96641 | -2.04104 | 34899 ft | 477 kts | 98° |
| 2026-05-04 17:38 | 4.95559 | -1.97537 | 34900 ft | 477 kts | 98° |
| 2026-05-04 17:39 | 4.93938 | -1.87746 | 34908 ft | 475 kts | 98° |
| 2026-05-04 17:39 | 4.92851 | -1.81208 | 34900 ft | 474 kts | 98° |
| 2026-05-04 17:40 | 4.91764 | -1.74678 | 34899 ft | 474 kts | 98° |
| 2026-05-04 17:40 | 4.90677 | -1.68158 | 34901 ft | 474 kts | 98° |
| 2026-05-04 17:41 | 4.89604 | -1.61632 | 34900 ft | 474 kts | 98° |
| 2026-05-04 17:41 | 4.88706 | -1.56207 | 34902 ft | 474 kts | 98° |
| 2026-05-04 17:42 | 4.87612 | -1.49686 | 34897 ft | 474 kts | 98° |
| 2026-05-04 17:42 | 4.86522 | -1.43167 | 34888 ft | 474 kts | 98° |
| 2026-05-04 17:43 | 4.85440 | -1.36640 | 34893 ft | 474 kts | 98° |
| 2026-05-04 17:43 | 4.84470 | -1.30101 | 34893 ft | 473 kts | 92° |
| 2026-05-04 17:44 | 4.84051 | -1.23516 | 34892 ft | 473 kts | 92° |
| 2026-05-04 17:44 | 4.83622 | -1.16927 | 34892 ft | 473 kts | 92° |
| 2026-05-04 17:45 | 4.83195 | -1.10386 | 34889 ft | 473 kts | 92° |
| 2026-05-04 17:45 | 4.82763 | -1.03800 | 34886 ft | 473 kts | 92° |
| 2026-05-04 17:46 | 4.82328 | -0.97209 | 34887 ft | 473 kts | 92° |
| 2026-05-04 17:46 | 4.81890 | -0.90614 | 34880 ft | 473 kts | 92° |
| 2026-05-04 17:47 | 4.81443 | -0.84026 | 34884 ft | 473 kts | 92° |
| 2026-05-04 17:47 | 4.81007 | -0.77445 | 34887 ft | 473 kts | 92° |
| 2026-05-04 17:48 | 4.80572 | -0.70857 | 34878 ft | 473 kts | 92° |
| 2026-05-04 17:48 | 4.80140 | -0.64266 | 34878 ft | 474 kts | 92° |
| 2026-05-04 17:49 | 4.79704 | -0.57672 | 34880 ft | 474 kts | 92° |
| 2026-05-04 17:49 | 4.79266 | -0.51113 | 34876 ft | 475 kts | 92° |
| 2026-05-04 17:50 | 4.78825 | -0.44511 | 34888 ft | 475 kts | 92° |
| 2026-05-04 17:50 | 4.78386 | -0.37898 | 34891 ft | 475 kts | 92° |
| 2026-05-04 17:51 | 4.77946 | -0.31289 | 34893 ft | 475 kts | 92° |
| 2026-05-04 17:51 | 4.77503 | -0.24677 | 34895 ft | 475 kts | 92° |
| 2026-05-04 17:52 | 4.77061 | -0.18065 | 34894 ft | 475 kts | 92° |
| 2026-05-04 17:52 | 4.76620 | -0.11455 | 34896 ft | 475 kts | 92° |
| 2026-05-04 17:53 | 4.76181 | -0.04847 | 34896 ft | 475 kts | 92° |
| 2026-05-04 17:53 | 4.75741 | 0.01721 | 34890 ft | 475 kts | 92° |
| 2026-05-04 17:54 | 4.75294 | 0.08333 | 34891 ft | 475 kts | 92° |
| 2026-05-04 17:54 | 4.74848 | 0.14944 | 34883 ft | 475 kts | 92° |
| 2026-05-04 17:55 | 4.74408 | 0.21555 | 34888 ft | 475 kts | 92° |
| 2026-05-04 17:55 | 4.73961 | 0.28169 | 34885 ft | 475 kts | 93° |
| 2026-05-04 17:56 | 4.73501 | 0.34778 | 34886 ft | 475 kts | 92° |
| 2026-05-04 17:56 | 4.73057 | 0.41340 | 34885 ft | 475 kts | 93° |
| 2026-05-04 17:57 | 4.72609 | 0.47959 | 34887 ft | 475 kts | 93° |
| 2026-05-04 17:57 | 4.72153 | 0.54567 | 34889 ft | 475 kts | 93° |
| 2026-05-04 17:58 | 4.71696 | 0.61179 | 34883 ft | 475 kts | 93° |
| 2026-05-04 17:58 | 4.71246 | 0.67800 | 34891 ft | 476 kts | 93° |
| 2026-05-04 17:59 | 4.70796 | 0.74417 | 34893 ft | 476 kts | 93° |
| 2026-05-04 18:00 | 4.70119 | 0.84342 | 34896 ft | 476 kts | 93° |
| 2026-05-04 18:00 | 4.69661 | 0.90962 | 34898 ft | 476 kts | 93° |
| 2026-05-04 18:01 | 4.69204 | 0.97586 | 34900 ft | 476 kts | 93° |
| 2026-05-04 18:01 | 4.68746 | 1.04165 | 34900 ft | 476 kts | 93° |
| 2026-05-04 18:02 | 4.68067 | 1.14081 | 34898 ft | 475 kts | 93° |
| 2026-05-04 18:02 | 4.67618 | 1.20692 | 34901 ft | 475 kts | 93° |
| 2026-05-04 18:03 | 4.67159 | 1.27296 | 34904 ft | 474 kts | 93° |
| 2026-05-04 18:03 | 4.66701 | 1.33892 | 34905 ft | 474 kts | 94° |
| 2026-05-04 18:04 | 4.66237 | 1.40483 | 34901 ft | 474 kts | 93° |
| 2026-05-04 18:05 | 4.65548 | 1.50365 | 34892 ft | 473 kts | 93° |
| 2026-05-04 18:05 | 4.65094 | 1.56952 | 34898 ft | 473 kts | 94° |
| 2026-05-04 18:06 | 4.64405 | 1.66812 | 34893 ft | 472 kts | 93° |
| 2026-05-04 18:06 | 4.63949 | 1.73343 | 34896 ft | 472 kts | 94° |
| 2026-05-04 18:07 | 4.63494 | 1.79907 | 34893 ft | 472 kts | 93° |
| 2026-05-04 18:07 | 4.63032 | 1.86471 | 34895 ft | 472 kts | 93° |
| 2026-05-04 18:08 | 4.62577 | 1.93045 | 34892 ft | 473 kts | 93° |
| 2026-05-04 18:08 | 4.62114 | 1.99618 | 34889 ft | 473 kts | 94° |
| 2026-05-04 18:09 | 4.61190 | 2.12743 | 34889 ft | 473 kts | 94° |
| 2026-05-04 18:10 | 4.60726 | 2.19329 | 34889 ft | 474 kts | 94° |
| 2026-05-04 18:10 | 4.60256 | 2.25929 | 34893 ft | 474 kts | 94° |
| 2026-05-04 18:11 | 4.59794 | 2.32516 | 34900 ft | 474 kts | 93° |
| 2026-05-04 18:11 | 4.59328 | 2.39098 | 34903 ft | 473 kts | 93° |
| 2026-05-04 18:12 | 4.58857 | 2.45687 | 34904 ft | 473 kts | 93° |
| 2026-05-04 18:12 | 4.58392 | 2.52258 | 34895 ft | 473 kts | 94° |
| 2026-05-04 18:13 | 4.57919 | 2.58836 | 34889 ft | 473 kts | 94° |
| 2026-05-04 18:14 | 4.57240 | 2.68705 | 34889 ft | 472 kts | 93° |
| 2026-05-04 18:14 | 4.56776 | 2.75228 | 34906 ft | 472 kts | 93° |
| 2026-05-04 18:15 | 4.55816 | 2.88315 | 34911 ft | 470 kts | 93° |
| 2026-05-04 18:16 | 4.55355 | 2.94852 | 34906 ft | 469 kts | 93° |
| 2026-05-04 18:16 | 4.54893 | 3.01374 | 34904 ft | 469 kts | 93° |
| 2026-05-04 18:17 | 4.54187 | 3.11160 | 34911 ft | 468 kts | 94° |
| 2026-05-04 18:18 | 4.53484 | 3.20914 | 34910 ft | 467 kts | 93° |
| 2026-05-04 18:18 | 4.53015 | 3.27417 | 34908 ft | 467 kts | 93° |
| 2026-05-04 18:19 | 4.52309 | 3.37115 | 34905 ft | 467 kts | 93° |
| 2026-05-04 18:19 | 4.51870 | 3.43609 | 34908 ft | 467 kts | 93° |
| 2026-05-04 18:20 | 4.51405 | 3.50093 | 34906 ft | 467 kts | 94° |
| 2026-05-04 18:20 | 4.50917 | 3.56586 | 34903 ft | 467 kts | 93° |
| 2026-05-04 18:21 | 4.50437 | 3.63077 | 34902 ft | 467 kts | 93° |
| 2026-05-04 18:21 | 4.49966 | 3.69569 | 34903 ft | 467 kts | 93° |
| 2026-05-04 18:22 | 4.49491 | 3.76027 | 34901 ft | 467 kts | 93° |
| 2026-05-04 18:22 | 4.49017 | 3.82560 | 34901 ft | 466 kts | 93° |
| 2026-05-04 18:23 | 4.48549 | 3.89002 | 34901 ft | 466 kts | 93° |
| 2026-05-04 18:23 | 4.48072 | 3.95486 | 34903 ft | 466 kts | 93° |
| 2026-05-04 18:24 | 4.47605 | 4.01971 | 34904 ft | 466 kts | 93° |
| 2026-05-04 18:24 | 4.47132 | 4.08456 | 34904 ft | 466 kts | 93° |
| 2026-05-04 18:25 | 4.46664 | 4.14935 | 34904 ft | 466 kts | 93° |
| 2026-05-04 18:25 | 4.46184 | 4.21424 | 34900 ft | 465 kts | 93° |
| 2026-05-04 18:26 | 4.45706 | 4.27888 | 34903 ft | 464 kts | 93° |
| 2026-05-04 18:26 | 4.45313 | 4.33249 | 34903 ft | 464 kts | 93° |
| 2026-05-04 18:27 | 4.44763 | 4.40740 | 34904 ft | 463 kts | 93° |
| 2026-05-04 18:27 | 4.44285 | 4.47174 | 34901 ft | 463 kts | 93° |
| 2026-05-04 18:28 | 4.43889 | 4.52568 | 34897 ft | 463 kts | 93° |
| 2026-05-04 18:28 | 4.43398 | 4.58963 | 34895 ft | 463 kts | 94° |
| 2026-05-04 18:29 | 4.42799 | 4.65380 | 34899 ft | 462 kts | 94° |
| 2026-05-04 18:29 | 4.42179 | 4.71792 | 34900 ft | 462 kts | 94° |
| 2026-05-04 18:30 | 4.41297 | 4.81406 | 34896 ft | 461 kts | 94° |
| 2026-05-04 18:31 | 4.40719 | 4.87808 | 34897 ft | 461 kts | 94° |
| 2026-05-04 18:31 | 4.40139 | 4.94162 | 34895 ft | 461 kts | 94° |
| 2026-05-04 18:32 | 4.39550 | 5.00570 | 34890 ft | 462 kts | 94° |
| 2026-05-04 18:32 | 4.38959 | 5.06982 | 34893 ft | 462 kts | 94° |
| 2026-05-04 18:33 | 4.38372 | 5.13407 | 34891 ft | 463 kts | 94° |
| 2026-05-04 18:33 | 4.37790 | 5.19828 | 34894 ft | 463 kts | 94° |
| 2026-05-04 18:34 | 4.37197 | 5.26247 | 34896 ft | 462 kts | 94° |
| 2026-05-04 18:34 | 4.36608 | 5.32675 | 34895 ft | 462 kts | 94° |
| 2026-05-04 18:35 | 4.36027 | 5.39049 | 34884 ft | 462 kts | 94° |
| 2026-05-04 18:35 | 4.35433 | 5.45464 | 34881 ft | 463 kts | 94° |
| 2026-05-04 18:36 | 4.34837 | 5.51881 | 34879 ft | 462 kts | 94° |
| 2026-05-04 18:36 | 4.34246 | 5.58295 | 34875 ft | 462 kts | 94° |
| 2026-05-04 18:37 | 4.33659 | 5.64712 | 34875 ft | 462 kts | 94° |
| 2026-05-04 18:37 | 4.33060 | 5.71140 | 34878 ft | 463 kts | 94° |
| 2026-05-04 18:38 | 4.32447 | 5.77555 | 34883 ft | 462 kts | 95° |
| 2026-05-04 18:38 | 4.31835 | 5.83974 | 34885 ft | 462 kts | 95° |
| 2026-05-04 18:39 | 4.31231 | 5.90399 | 34884 ft | 463 kts | 95° |
| 2026-05-04 18:39 | 4.30624 | 5.96779 | 34886 ft | 462 kts | 95° |
| 2026-05-04 18:40 | 4.30012 | 6.03191 | 34890 ft | 462 kts | 94° |
| 2026-05-04 18:40 | 4.29405 | 6.09601 | 34883 ft | 462 kts | 95° |
| 2026-05-04 18:41 | 4.28803 | 6.16011 | 34887 ft | 462 kts | 95° |
| 2026-05-04 18:41 | 4.28198 | 6.22419 | 34890 ft | 462 kts | 95° |
| 2026-05-04 18:42 | 4.27593 | 6.28831 | 34892 ft | 462 kts | 95° |
| 2026-05-04 18:42 | 4.26987 | 6.35244 | 34890 ft | 462 kts | 95° |
| 2026-05-04 18:43 | 4.26373 | 6.41646 | 34890 ft | 462 kts | 94° |
| 2026-05-04 18:43 | 4.25764 | 6.48051 | 34892 ft | 462 kts | 95° |
| 2026-05-04 18:44 | 4.25142 | 6.54410 | 34897 ft | 461 kts | 95° |
| 2026-05-04 18:44 | 4.24525 | 6.60803 | 34896 ft | 461 kts | 95° |
| 2026-05-04 18:45 | 4.23914 | 6.67195 | 34896 ft | 461 kts | 94° |
| 2026-05-04 18:45 | 4.23608 | 6.70384 | 34762 ft | 459 kts | 94° |
| 2026-05-04 18:45 | 4.23302 | 6.73563 | 34088 ft | 459 kts | 95° |
| 2026-05-04 18:45 | 4.22993 | 6.76748 | 33303 ft | 460 kts | 95° |
| 2026-05-04 18:46 | 4.22682 | 6.79941 | 32494 ft | 461 kts | 95° |
| 2026-05-04 18:46 | 4.22370 | 6.83140 | 31684 ft | 462 kts | 95° |
| 2026-05-04 18:46 | 4.22059 | 6.86352 | 31179 ft | 462 kts | 95° |
| 2026-05-04 18:46 | 4.21745 | 6.89567 | 30854 ft | 464 kts | 95° |
| 2026-05-04 18:47 | 4.21428 | 6.92788 | 30534 ft | 465 kts | 95° |
| 2026-05-04 18:47 | 4.21111 | 6.96014 | 30218 ft | 466 kts | 95° |
| 2026-05-04 18:47 | 4.20800 | 6.99218 | 29900 ft | 466 kts | 95° |
| 2026-05-04 18:47 | 4.20484 | 7.02455 | 29527 ft | 467 kts | 95° |
| 2026-05-04 18:48 | 4.20167 | 7.05699 | 29149 ft | 468 kts | 95° |
| 2026-05-04 18:48 | 4.19850 | 7.08948 | 28794 ft | 469 kts | 95° |
| 2026-05-04 18:48 | 4.19532 | 7.12203 | 28432 ft | 470 kts | 95° |
| 2026-05-04 18:48 | 4.19210 | 7.15470 | 28087 ft | 471 kts | 95° |
| 2026-05-04 18:49 | 4.18889 | 7.18740 | 27737 ft | 472 kts | 95° |
| 2026-05-04 18:49 | 4.18568 | 7.22017 | 27390 ft | 473 kts | 95° |
| 2026-05-04 18:49 | 4.18246 | 7.25305 | 27050 ft | 474 kts | 95° |
| 2026-05-04 18:49 | 4.17923 | 7.28601 | 26712 ft | 475 kts | 95° |
| 2026-05-04 18:50 | 4.17607 | 7.31855 | 26387 ft | 476 kts | 95° |
| 2026-05-04 18:50 | 4.17287 | 7.35158 | 26062 ft | 477 kts | 95° |
| 2026-05-04 18:50 | 4.16965 | 7.38469 | 25737 ft | 478 kts | 95° |
| 2026-05-04 18:50 | 4.16641 | 7.41784 | 25411 ft | 479 kts | 95° |
| 2026-05-04 18:51 | 4.16314 | 7.45105 | 25097 ft | 480 kts | 96° |
| 2026-05-04 18:51 | 4.15986 | 7.48433 | 24784 ft | 481 kts | 96° |
| 2026-05-04 18:51 | 4.15658 | 7.51775 | 24471 ft | 482 kts | 96° |
| 2026-05-04 18:51 | 4.15326 | 7.55121 | 24164 ft | 483 kts | 96° |
| 2026-05-04 18:52 | 4.14993 | 7.58481 | 23862 ft | 485 kts | 96° |
| 2026-05-04 18:52 | 4.14660 | 7.61840 | 23561 ft | 483 kts | 96° |
| 2026-05-04 18:52 | 4.14329 | 7.65182 | 23221 ft | 481 kts | 96° |
| 2026-05-04 18:52 | 4.14004 | 7.68504 | 22862 ft | 478 kts | 95° |
| 2026-05-04 18:53 | 4.13682 | 7.71808 | 22505 ft | 475 kts | 95° |
| 2026-05-04 18:53 | 4.13360 | 7.75090 | 22156 ft | 472 kts | 95° |
| 2026-05-04 18:53 | 4.13039 | 7.78356 | 21810 ft | 469 kts | 95° |
| 2026-05-04 18:53 | 4.12720 | 7.81596 | 21468 ft | 466 kts | 95° |
| 2026-05-04 18:54 | 4.12388 | 7.84809 | 21136 ft | 463 kts | 97° |
| 2026-05-04 18:54 | 4.11716 | 7.87955 | 20798 ft | 460 kts | 106° |
| 2026-05-04 18:54 | 4.10604 | 7.90940 | 20463 ft | 457 kts | 112° |
| 2026-05-04 18:54 | 4.09375 | 7.93872 | 20139 ft | 454 kts | 112° |
| 2026-05-04 18:55 | 4.08160 | 7.96781 | 19812 ft | 451 kts | 111° |
| 2026-05-04 18:55 | 4.05762 | 8.02548 | 19178 ft | 446 kts | 111° |
| 2026-05-04 18:55 | 4.04573 | 8.05411 | 18866 ft | 443 kts | 111° |
| 2026-05-04 18:56 | 4.03407 | 8.08221 | 18555 ft | 441 kts | 111° |
| 2026-05-04 18:56 | 4.02234 | 8.11044 | 18253 ft | 438 kts | 111° |
| 2026-05-04 18:56 | 4.01068 | 8.13848 | 17906 ft | 435 kts | 111° |
| 2026-05-04 18:56 | 3.99905 | 8.16637 | 17548 ft | 432 kts | 111° |
| 2026-05-04 18:57 | 3.98750 | 8.19408 | 17199 ft | 430 kts | 111° |
| 2026-05-04 18:57 | 3.97601 | 8.22163 | 16846 ft | 428 kts | 111° |
| 2026-05-04 18:57 | 3.96456 | 8.24909 | 16502 ft | 425 kts | 111° |
| 2026-05-04 18:57 | 3.95319 | 8.27637 | 16161 ft | 423 kts | 111° |
| 2026-05-04 18:58 | 3.94188 | 8.30354 | 15822 ft | 421 kts | 111° |
| 2026-05-04 18:58 | 3.93065 | 8.33051 | 15486 ft | 419 kts | 111° |
| 2026-05-04 18:58 | 3.91945 | 8.35741 | 15157 ft | 417 kts | 111° |
| 2026-05-04 18:58 | 3.90833 | 8.38416 | 14830 ft | 415 kts | 111° |
| 2026-05-04 18:59 | 3.89725 | 8.41081 | 14504 ft | 413 kts | 111° |
| 2026-05-04 18:59 | 3.88622 | 8.43733 | 14189 ft | 411 kts | 111° |
| 2026-05-04 18:59 | 3.87525 | 8.46368 | 13873 ft | 409 kts | 111° |
| 2026-05-04 18:59 | 3.86447 | 8.48958 | 13546 ft | 407 kts | 111° |
| 2026-05-04 19:00 | 3.85361 | 8.51564 | 13193 ft | 404 kts | 111° |
| 2026-05-04 19:00 | 3.84281 | 8.54152 | 12845 ft | 402 kts | 111° |
| 2026-05-04 19:00 | 3.83205 | 8.56727 | 12487 ft | 398 kts | 111° |
| 2026-05-04 19:00 | 3.82145 | 8.59265 | 11849 ft | 392 kts | 111° |
| 2026-05-04 19:01 | 3.81097 | 8.61774 | 11185 ft | 388 kts | 111° |
| 2026-05-04 19:01 | 3.80061 | 8.64253 | 10557 ft | 383 kts | 110° |
| 2026-05-04 19:01 | 3.79056 | 8.66678 | 10295 ft | 368 kts | 109° |
| 2026-05-04 19:01 | 3.78314 | 8.69056 | 10175 ft | 348 kts | 101° |
| 2026-05-04 19:02 | 3.77892 | 8.71372 | 10062 ft | 330 kts | 95° |
| 2026-05-04 19:02 | 3.77735 | 8.73610 | 9944 ft | 315 kts | 89° |
| 2026-05-04 19:02 | 3.77815 | 8.75747 | 9883 ft | 299 kts | 83° |
| 2026-05-04 19:02 | 3.78099 | 8.77748 | 9883 ft | 282 kts | 78° |
| 2026-05-04 19:03 | 3.78507 | 8.79611 | 9889 ft | 266 kts | 77° |
| 2026-05-04 19:03 | 3.78896 | 8.81374 | 9885 ft | 252 kts | 77° |
| 2026-05-04 19:03 | 3.79266 | 8.83063 | 9880 ft | 246 kts | 77° |
| 2026-05-04 19:03 | 3.79632 | 8.84729 | 9609 ft | 243 kts | 77° |
| 2026-05-04 19:04 | 3.79997 | 8.86381 | 9267 ft | 243 kts | 77° |
| 2026-05-04 19:04 | 3.80364 | 8.88032 | 8899 ft | 243 kts | 77° |
| 2026-05-04 19:04 | 3.80732 | 8.89686 | 8528 ft | 244 kts | 77° |
| 2026-05-04 19:04 | 3.81098 | 8.91346 | 8153 ft | 244 kts | 77° |
| 2026-05-04 19:05 | 3.81465 | 8.93009 | 7783 ft | 245 kts | 77° |
| 2026-05-04 19:05 | 3.81828 | 8.94653 | 7415 ft | 246 kts | 77° |
| 2026-05-04 19:05 | 3.82198 | 8.96323 | 7050 ft | 246 kts | 77° |
| 2026-05-04 19:05 | 3.82568 | 8.97998 | 6685 ft | 247 kts | 77° |
| 2026-05-04 19:06 | 3.82939 | 8.99681 | 6313 ft | 247 kts | 77° |
| 2026-05-04 19:06 | 3.83311 | 9.01363 | 5923 ft | 248 kts | 77° |
| 2026-05-04 19:06 | 3.83682 | 9.03044 | 5548 ft | 247 kts | 77° |
| 2026-05-04 19:06 | 3.84053 | 9.04723 | 5185 ft | 246 kts | 77° |
| 2026-05-04 19:07 | 3.84423 | 9.06396 | 4921 ft | 244 kts | 77° |
| 2026-05-04 19:07 | 3.84793 | 9.08077 | 4905 ft | 249 kts | 77° |
| 2026-05-04 19:07 | 3.85169 | 9.09778 | 4891 ft | 250 kts | 76° |
| 2026-05-04 19:07 | 3.85546 | 9.11475 | 4890 ft | 250 kts | 77° |
| 2026-05-04 19:08 | 3.85924 | 9.13178 | 4888 ft | 251 kts | 77° |
| 2026-05-04 19:08 | 3.86299 | 9.14879 | 4890 ft | 250 kts | 76° |
| 2026-05-04 19:08 | 3.86673 | 9.16578 | 4889 ft | 250 kts | 77° |
| 2026-05-04 19:08 | 3.87046 | 9.18278 | 4889 ft | 250 kts | 77° |
| 2026-05-04 19:09 | 3.87417 | 9.19963 | 4891 ft | 250 kts | 77° |
| 2026-05-04 19:09 | 3.87791 | 9.21662 | 4890 ft | 249 kts | 77° |
| 2026-05-04 19:09 | 3.88165 | 9.23361 | 4890 ft | 250 kts | 77° |
| 2026-05-04 19:09 | 3.88539 | 9.25061 | 4879 ft | 250 kts | 77° |
| 2026-05-04 19:10 | 3.88916 | 9.26762 | 4877 ft | 250 kts | 76° |
| 2026-05-04 19:10 | 3.89294 | 9.28462 | 4878 ft | 250 kts | 77° |
| 2026-05-04 19:10 | 3.89672 | 9.30162 | 4879 ft | 250 kts | 76° |
| 2026-05-04 19:10 | 3.90049 | 9.31865 | 4879 ft | 250 kts | 77° |
| 2026-05-04 19:11 | 3.90326 | 9.33576 | 4877 ft | 250 kts | 86° |
| 2026-05-04 19:11 | 3.90237 | 9.35320 | 4878 ft | 251 kts | 96° |
| 2026-05-04 19:11 | 3.90018 | 9.37059 | 4879 ft | 252 kts | 95° |
| 2026-05-04 19:11 | 3.89807 | 9.38801 | 4867 ft | 252 kts | 96° |
| 2026-05-04 19:12 | 3.89600 | 9.40542 | 4868 ft | 252 kts | 96° |
| 2026-05-04 19:12 | 3.89184 | 9.44016 | 4868 ft | 252 kts | 96° |
| 2026-05-04 19:12 | 3.89046 | 9.45174 | 4867 ft | 251 kts | 96° |
| 2026-05-04 19:13 | 3.88772 | 9.47479 | 4867 ft | 252 kts | 96° |
| 2026-05-04 19:13 | 3.88564 | 9.49225 | 4867 ft | 253 kts | 96° |
| 2026-05-04 19:13 | 3.88423 | 9.50406 | 4867 ft | 253 kts | 96° |
| 2026-05-04 19:13 | 3.88213 | 9.52154 | 4867 ft | 253 kts | 96° |
| 2026-05-04 19:14 | 3.88005 | 9.53897 | 4724 ft | 251 kts | 96° |
| 2026-05-04 19:14 | 3.87800 | 9.55614 | 4346 ft | 251 kts | 96° |
| 2026-05-04 19:14 | 3.87592 | 9.57350 | 3964 ft | 252 kts | 97° |
| 2026-05-04 19:14 | 3.87384 | 9.59091 | 3604 ft | 252 kts | 97° |
| 2026-05-04 19:15 | 3.87174 | 9.60836 | 3231 ft | 253 kts | 97° |
| 2026-05-04 19:15 | 3.86964 | 9.62589 | 2901 ft | 252 kts | 97° |
| 2026-05-04 19:15 | 3.86685 | 9.64922 | 2865 ft | 254 kts | 97° |
| 2026-05-04 19:15 | 3.86547 | 9.66085 | 2869 ft | 253 kts | 96° |
| 2026-05-04 19:16 | 3.86339 | 9.67838 | 2886 ft | 250 kts | 97° |
| 2026-05-04 19:16 | 3.86142 | 9.69516 | 2877 ft | 236 kts | 97° |
| 2026-05-04 19:16 | 3.85955 | 9.71108 | 2884 ft | 227 kts | 97° |
| 2026-05-04 19:16 | 3.85767 | 9.72665 | 2883 ft | 224 kts | 98° |
| 2026-05-04 19:17 | 3.85581 | 9.74213 | 2886 ft | 224 kts | 97° |
| 2026-05-04 19:17 | 3.85395 | 9.75758 | 2884 ft | 224 kts | 97° |
| 2026-05-04 19:17 | 3.85207 | 9.77310 | 2884 ft | 224 kts | 98° |
| 2026-05-04 19:17 | 3.85020 | 9.78845 | 2760 ft | 219 kts | 97° |
| 2026-05-04 19:18 | 3.84839 | 9.80332 | 2635 ft | 212 kts | 97° |
| 2026-05-04 19:18 | 3.84667 | 9.81779 | 2509 ft | 206 kts | 94° |
| 2026-05-04 19:18 | 3.84815 | 9.83181 | 2352 ft | 202 kts | 70° |
| 2026-05-04 19:18 | 3.85503 | 9.84385 | 2150 ft | 200 kts | 46° |
| 2026-05-04 19:19 | 3.86602 | 9.85210 | 2033 ft | 199 kts | 22° |
| 2026-05-04 19:19 | 3.87924 | 9.85537 | 2021 ft | 195 kts | 359° |
| 2026-05-04 19:19 | 3.89280 | 9.85460 | 2014 ft | 194 kts | 353° |
| 2026-05-04 19:19 | 3.90624 | 9.85362 | 2002 ft | 194 kts | 353° |
| 2026-05-04 19:20 | 3.91958 | 9.85267 | 1999 ft | 195 kts | 353° |
| 2026-05-04 19:20 | 3.93246 | 9.84972 | 2005 ft | 186 kts | 331° |
| 2026-05-04 19:20 | 3.94257 | 9.84228 | 2000 ft | 178 kts | 309° |
| 2026-05-04 19:20 | 3.94905 | 9.83198 | 2004 ft | 174 kts | 295° |
| 2026-05-04 19:21 | 3.95449 | 9.82127 | 1885 ft | 172 kts | 294° |
| 2026-05-04 19:21 | 3.95989 | 9.81059 | 1696 ft | 169 kts | 294° |
| 2026-05-04 19:21 | 3.96516 | 9.80020 | 1473 ft | 166 kts | 294° |
| 2026-05-04 19:21 | 3.97039 | 9.78987 | 1274 ft | 166 kts | 294° |
| 2026-05-04 19:22 | 3.97562 | 9.77957 | 1054 ft | 165 kts | 295° |
| 2026-05-04 19:22 | 3.98078 | 9.76939 | 860 ft | 163 kts | 295° |
| 2026-05-04 19:22 | 3.98596 | 9.75918 | 665 ft | 163 kts | 294° |
| 2026-05-04 19:22 | 3.99122 | 9.74894 | 506 ft | 166 kts | 294° |
| 2026-05-04 19:23 | 3.99651 | 9.73877 | 335 ft | 158 kts | 295° |
| 2026-05-04 19:23 | 4.00140 | 9.72916 | 51 ft | 148 kts | 290° |
| 2026-05-04 19:23 | 4.00538 | 9.72083 | 36 ft | 113 kts | 293° |
| 2026-05-04 19:23 | 4.00786 | 9.71608 | 41 ft | 39 kts | 297° |
| 2026-05-04 19:24 | 4.00903 | 9.71382 | 42 ft | 29 kts | 297° |
| 2026-05-04 19:24 | 4.00974 | 9.71331 | 43 ft | 6 kts | 26° |
| 2026-05-04 19:24 | 4.01029 | 9.71356 | 44 ft | 14 kts | 37° |
| 2026-05-04 19:24 | 4.01141 | 9.71430 | 44 ft | 17 kts | 28° |
| 2026-05-04 19:25 | 4.01145 | 9.71468 | 44 ft | 8 kts | 140° |
| 2026-05-04 19:25 | 4.01090 | 9.71578 | 43 ft | 21 kts | 75° |
| 2026-05-04 19:25 | 4.01163 | 9.71614 | 42 ft | 11 kts | 318° |
| 2026-05-04 19:25 | 4.01183 | 9.71578 | 43 ft | 0 kts | 292° |
| 2026-05-04 19:26 | 4.01185 | 9.71573 | 43 ft | 0 kts | 292° |